sensor_id;sensor_type;location;lat;lon;timestamp;temperature;humidity
5128;DHT22;2582;48.770;9.190;2023-02-18T00:01:25;13.70;99.90
5128;DHT22;2582;48.770;9.190;2023-02-18T00:03:51;13.60;99.90
5128;DHT22;2582;48.770;9.190;2023-02-18T00:06:23;13.60;99.90
5128;DHT22;2582;48.770;9.190;2023-02-18T00:08:50;13.50;99.90
5128;DHT22;2582;48.770;9.190;2023-02-18T00:11:16;13.40;99.90
5128;DHT22;2582;48.770;9.190;2023-02-18T00:13:42;13.50;99.90
5128;DHT22;2582;48.770;9.190;2023-02-18T00:16:10;13.60;99.90
5128;DHT22;2582;48.770;9.190;2023-02-18T00:18:37;13.70;99.90
5128;DHT22;2582;48.770;9.190;2023-02-18T00:21:04;13.60;99.90
5128;DHT22;2582;48.770;9.190;2023-02-18T00:23:30;13.70;99.90
5128;DHT22;2582;48.770;9.190;2023-02-18T00:26:07;13.60;99.90
5128;DHT22;2582;48.770;9.190;2023-02-18T00:28:34;13.60;99.90
5128;DHT22;2582;48.770;9.190;2023-02-18T00:31:09;13.50;99.90
5128;DHT22;2582;48.770;9.190;2023-02-18T00:33:35;13.40;99.90
5128;DHT22;2582;48.770;9.190;2023-02-18T00:36:07;13.50;99.90
5128;DHT22;2582;48.770;9.190;2023-02-18T00:38:33;13.60;99.90
5128;DHT22;2582;48.770;9.190;2023-02-18T00:43:28;13.50;99.90
5128;DHT22;2582;48.770;9.190;2023-02-18T00:45:54;13.60;99.90
5128;DHT22;2582;48.770;9.190;2023-02-18T00:48:20;13.40;99.90
5128;DHT22;2582;48.770;9.190;2023-02-18T00:50:46;13.30;99.90
5128;DHT22;2582;48.770;9.190;2023-02-18T00:53:12;13.60;99.90
5128;DHT22;2582;48.770;9.190;2023-02-18T00:55:42;13.70;99.90
5128;DHT22;2582;48.770;9.190;2023-02-18T00:58:09;13.70;99.90
5128;DHT22;2582;48.770;9.190;2023-02-18T01:00:35;13.50;99.90
5128;DHT22;2582;48.770;9.190;2023-02-18T01:03:00;13.60;99.90
5128;DHT22;2582;48.770;9.190;2023-02-18T01:05:26;13.60;99.90
5128;DHT22;2582;48.770;9.190;2023-02-18T01:07:52;13.50;99.90
5128;DHT22;2582;48.770;9.190;2023-02-18T01:10:17;13.40;99.90
5128;DHT22;2582;48.770;9.190;2023-02-18T01:12:43;13.40;99.90
5128;DHT22;2582;48.770;9.190;2023-02-18T01:15:10;13.40;99.90
5128;DHT22;2582;48.770;9.190;2023-02-18T01:17:37;13.50;99.90
5128;DHT22;2582;48.770;9.190;2023-02-18T01:20:03;13.60;99.90
5128;DHT22;2582;48.770;9.190;2023-02-18T01:22:29;13.70;99.90
5128;DHT22;2582;48.770;9.190;2023-02-18T01:24:55;13.60;99.90
5128;DHT22;2582;48.770;9.190;2023-02-18T01:27:21;13.60;99.90
5128;DHT22;2582;48.770;9.190;2023-02-18T01:29:46;13.50;99.90
5128;DHT22;2582;48.770;9.190;2023-02-18T01:32:12;13.40;99.90
5128;DHT22;2582;48.770;9.190;2023-02-18T01:34:38;13.50;99.90
5128;DHT22;2582;48.770;9.190;2023-02-18T01:37:03;13.50;99.90
5128;DHT22;2582;48.770;9.190;2023-02-18T01:39:29;13.60;99.90
5128;DHT22;2582;48.770;9.190;2023-02-18T01:41:54;13.50;99.90
5128;DHT22;2582;48.770;9.190;2023-02-18T01:44:23;13.60;99.90
5128;DHT22;2582;48.770;9.190;2023-02-18T01:46:50;13.50;99.90
5128;DHT22;2582;48.770;9.190;2023-02-18T01:49:22;13.50;99.90
5128;DHT22;2582;48.770;9.190;2023-02-18T01:51:55;13.50;99.90
5128;DHT22;2582;48.770;9.190;2023-02-18T01:54:26;13.40;99.90
5128;DHT22;2582;48.770;9.190;2023-02-18T01:57:02;13.40;99.90
5128;DHT22;2582;48.770;9.190;2023-02-18T01:59:37;13.40;99.90
5128;DHT22;2582;48.770;9.190;2023-02-18T02:02:04;13.20;99.90
5128;DHT22;2582;48.770;9.190;2023-02-18T02:04:31;13.30;99.90
5128;DHT22;2582;48.770;9.190;2023-02-18T02:06:56;13.30;99.90
5128;DHT22;2582;48.770;9.190;2023-02-18T02:09:25;13.20;99.90
5128;DHT22;2582;48.770;9.190;2023-02-18T02:21:23;13.00;99.90
5128;DHT22;2582;48.770;9.190;2023-02-18T02:26:37;13.00;99.90
5128;DHT22;2582;48.770;9.190;2023-02-18T02:37:09;13.40;99.90
5128;DHT22;2582;48.770;9.190;2023-02-18T02:42:29;13.60;99.90
5128;DHT22;2582;48.770;9.190;2023-02-18T02:45:26;13.50;99.90
5128;DHT22;2582;48.770;9.190;2023-02-18T02:48:34;13.30;99.90
5128;DHT22;2582;48.770;9.190;2023-02-18T02:51:09;13.30;99.90
5128;DHT22;2582;48.770;9.190;2023-02-18T02:53:40;13.30;99.90
5128;DHT22;2582;48.770;9.190;2023-02-18T02:56:12;13.30;99.90
5128;DHT22;2582;48.770;9.190;2023-02-18T02:58:38;13.30;99.90
5128;DHT22;2582;48.770;9.190;2023-02-18T03:04:18;13.30;99.90
5128;DHT22;2582;48.770;9.190;2023-02-18T03:07:16;13.30;99.90
5128;DHT22;2582;48.770;9.190;2023-02-18T03:12:40;13.30;99.90
5128;DHT22;2582;48.770;9.190;2023-02-18T03:18:01;13.40;99.90
5128;DHT22;2582;48.770;9.190;2023-02-18T03:20:33;13.50;99.90
5128;DHT22;2582;48.770;9.190;2023-02-18T03:23:03;13.60;99.90
5128;DHT22;2582;48.770;9.190;2023-02-18T03:25:31;13.50;99.90
5128;DHT22;2582;48.770;9.190;2023-02-18T03:28:06;13.30;99.90
5128;DHT22;2582;48.770;9.190;2023-02-18T03:31:03;13.30;99.90
5128;DHT22;2582;48.770;9.190;2023-02-18T03:33:54;13.20;99.90
5128;DHT22;2582;48.770;9.190;2023-02-18T03:36:22;13.10;99.90
5128;DHT22;2582;48.770;9.190;2023-02-18T03:38:58;13.10;99.90
5128;DHT22;2582;48.770;9.190;2023-02-18T03:41:24;13.00;99.90
5128;DHT22;2582;48.770;9.190;2023-02-18T03:44:00;12.80;99.90
5128;DHT22;2582;48.770;9.190;2023-02-18T03:46:27;12.80;99.90
5128;DHT22;2582;48.770;9.190;2023-02-18T03:48:53;12.80;99.90
5128;DHT22;2582;48.770;9.190;2023-02-18T03:51:19;12.80;99.90
5128;DHT22;2582;48.770;9.190;2023-02-18T03:53:45;12.70;99.90
5128;DHT22;2582;48.770;9.190;2023-02-18T03:56:11;12.60;99.90
5128;DHT22;2582;48.770;9.190;2023-02-18T03:58:37;12.70;99.90
5128;DHT22;2582;48.770;9.190;2023-02-18T04:01:03;12.60;99.90
5128;DHT22;2582;48.770;9.190;2023-02-18T04:03:29;12.60;99.90
5128;DHT22;2582;48.770;9.190;2023-02-18T04:05:55;12.70;99.90
5128;DHT22;2582;48.770;9.190;2023-02-18T04:08:20;12.70;99.90
5128;DHT22;2582;48.770;9.190;2023-02-18T04:10:46;12.70;99.90
5128;DHT22;2582;48.770;9.190;2023-02-18T04:13:11;12.60;99.90
5128;DHT22;2582;48.770;9.190;2023-02-18T04:15:37;12.80;99.90
5128;DHT22;2582;48.770;9.190;2023-02-18T04:18:03;12.80;99.90
5128;DHT22;2582;48.770;9.190;2023-02-18T04:20:29;12.90;99.90
5128;DHT22;2582;48.770;9.190;2023-02-18T04:22:54;12.80;99.90
5128;DHT22;2582;48.770;9.190;2023-02-18T04:25:20;13.00;99.90
5128;DHT22;2582;48.770;9.190;2023-02-18T04:27:46;13.00;99.90
5128;DHT22;2582;48.770;9.190;2023-02-18T04:30:11;13.10;99.90
5128;DHT22;2582;48.770;9.190;2023-02-18T04:32:37;13.00;99.90
5128;DHT22;2582;48.770;9.190;2023-02-18T04:35:03;12.90;99.90
5128;DHT22;2582;48.770;9.190;2023-02-18T04:37:29;12.90;99.90
5128;DHT22;2582;48.770;9.190;2023-02-18T04:39:55;12.70;99.90
5128;DHT22;2582;48.770;9.190;2023-02-18T04:42:21;12.80;99.90
5128;DHT22;2582;48.770;9.190;2023-02-18T04:44:47;12.70;99.90
5128;DHT22;2582;48.770;9.190;2023-02-18T04:47:12;12.60;99.90
5128;DHT22;2582;48.770;9.190;2023-02-18T04:49:38;12.70;99.90
5128;DHT22;2582;48.770;9.190;2023-02-18T04:52:03;12.70;99.90
5128;DHT22;2582;48.770;9.190;2023-02-18T04:54:29;12.70;99.90
5128;DHT22;2582;48.770;9.190;2023-02-18T04:56:55;12.80;99.90
5128;DHT22;2582;48.770;9.190;2023-02-18T04:59:20;12.70;99.90
5128;DHT22;2582;48.770;9.190;2023-02-18T05:01:46;12.80;99.90
5128;DHT22;2582;48.770;9.190;2023-02-18T05:04:11;12.80;99.90
5128;DHT22;2582;48.770;9.190;2023-02-18T05:06:37;12.80;99.90
5128;DHT22;2582;48.770;9.190;2023-02-18T05:09:05;12.80;99.90
5128;DHT22;2582;48.770;9.190;2023-02-18T05:11:30;12.90;99.90
5128;DHT22;2582;48.770;9.190;2023-02-18T05:13:56;12.70;99.90
5128;DHT22;2582;48.770;9.190;2023-02-18T05:16:21;12.60;99.90
5128;DHT22;2582;48.770;9.190;2023-02-18T05:18:47;12.60;99.90
5128;DHT22;2582;48.770;9.190;2023-02-18T05:21:13;12.50;99.90
5128;DHT22;2582;48.770;9.190;2023-02-18T05:23:38;12.60;99.90
5128;DHT22;2582;48.770;9.190;2023-02-18T05:26:04;12.70;99.90
5128;DHT22;2582;48.770;9.190;2023-02-18T05:28:29;12.60;99.90
5128;DHT22;2582;48.770;9.190;2023-02-18T05:30:55;12.70;99.90
5128;DHT22;2582;48.770;9.190;2023-02-18T05:33:20;12.70;99.90
5128;DHT22;2582;48.770;9.190;2023-02-18T05:35:47;12.60;99.90
5128;DHT22;2582;48.770;9.190;2023-02-18T05:38:13;12.60;99.90
5128;DHT22;2582;48.770;9.190;2023-02-18T05:40:38;12.50;99.90
5128;DHT22;2582;48.770;9.190;2023-02-18T05:43:04;12.30;99.90
5128;DHT22;2582;48.770;9.190;2023-02-18T05:45:30;12.40;99.90
5128;DHT22;2582;48.770;9.190;2023-02-18T05:47:55;12.40;99.90
5128;DHT22;2582;48.770;9.190;2023-02-18T05:50:21;12.50;99.90
5128;DHT22;2582;48.770;9.190;2023-02-18T05:52:46;12.50;99.90
5128;DHT22;2582;48.770;9.190;2023-02-18T05:55:12;12.60;99.90
5128;DHT22;2582;48.770;9.190;2023-02-18T05:57:38;12.50;99.90
5128;DHT22;2582;48.770;9.190;2023-02-18T06:00:04;12.60;99.90
5128;DHT22;2582;48.770;9.190;2023-02-18T06:02:30;12.70;99.90
5128;DHT22;2582;48.770;9.190;2023-02-18T06:04:56;12.70;99.90
5128;DHT22;2582;48.770;9.190;2023-02-18T06:07:21;12.60;99.90
5128;DHT22;2582;48.770;9.190;2023-02-18T06:09:47;12.60;99.90
5128;DHT22;2582;48.770;9.190;2023-02-18T06:12:13;12.70;99.90
5128;DHT22;2582;48.770;9.190;2023-02-18T06:14:38;12.70;99.90
5128;DHT22;2582;48.770;9.190;2023-02-18T06:17:07;12.80;99.90
5128;DHT22;2582;48.770;9.190;2023-02-18T06:19:33;12.80;99.90
5128;DHT22;2582;48.770;9.190;2023-02-18T06:21:59;12.80;99.90
5128;DHT22;2582;48.770;9.190;2023-02-18T06:24:24;12.70;99.90
5128;DHT22;2582;48.770;9.190;2023-02-18T06:26:50;12.70;99.90
5128;DHT22;2582;48.770;9.190;2023-02-18T06:29:15;12.70;99.90
5128;DHT22;2582;48.770;9.190;2023-02-18T06:31:41;12.60;99.90
5128;DHT22;2582;48.770;9.190;2023-02-18T06:34:07;12.60;99.90
5128;DHT22;2582;48.770;9.190;2023-02-18T06:36:32;12.70;99.90
5128;DHT22;2582;48.770;9.190;2023-02-18T06:38:58;12.80;99.90
5128;DHT22;2582;48.770;9.190;2023-02-18T06:41:24;12.60;99.90
5128;DHT22;2582;48.770;9.190;2023-02-18T06:43:50;12.80;99.90
5128;DHT22;2582;48.770;9.190;2023-02-18T06:46:15;12.80;99.90
5128;DHT22;2582;48.770;9.190;2023-02-18T06:48:41;12.80;99.90
5128;DHT22;2582;48.770;9.190;2023-02-18T06:51:07;12.90;99.90
5128;DHT22;2582;48.770;9.190;2023-02-18T06:53:32;12.80;99.90
5128;DHT22;2582;48.770;9.190;2023-02-18T06:55:58;13.00;99.90
5128;DHT22;2582;48.770;9.190;2023-02-18T06:58:24;13.10;99.90
5128;DHT22;2582;48.770;9.190;2023-02-18T07:00:50;13.00;99.90
5128;DHT22;2582;48.770;9.190;2023-02-18T07:03:15;13.10;99.90
5128;DHT22;2582;48.770;9.190;2023-02-18T07:05:41;13.10;99.90
5128;DHT22;2582;48.770;9.190;2023-02-18T07:08:07;12.90;99.90
5128;DHT22;2582;48.770;9.190;2023-02-18T07:10:32;13.00;99.90
5128;DHT22;2582;48.770;9.190;2023-02-18T07:12:58;13.20;99.90
5128;DHT22;2582;48.770;9.190;2023-02-18T07:15:24;13.30;99.90
5128;DHT22;2582;48.770;9.190;2023-02-18T07:17:51;13.30;99.90
5128;DHT22;2582;48.770;9.190;2023-02-18T07:20:18;13.20;99.90
5128;DHT22;2582;48.770;9.190;2023-02-18T07:22:44;13.00;99.90
5128;DHT22;2582;48.770;9.190;2023-02-18T07:25:09;13.00;99.90
5128;DHT22;2582;48.770;9.190;2023-02-18T07:27:35;12.90;99.90
5128;DHT22;2582;48.770;9.190;2023-02-18T07:30:00;13.00;99.90
5128;DHT22;2582;48.770;9.190;2023-02-18T07:32:26;13.10;99.90
5128;DHT22;2582;48.770;9.190;2023-02-18T07:34:52;13.20;99.90
5128;DHT22;2582;48.770;9.190;2023-02-18T07:37:19;13.30;99.90
5128;DHT22;2582;48.770;9.190;2023-02-18T07:39:44;13.40;99.90
5128;DHT22;2582;48.770;9.190;2023-02-18T07:42:11;13.40;99.90
5128;DHT22;2582;48.770;9.190;2023-02-18T07:44:37;13.30;99.90
5128;DHT22;2582;48.770;9.190;2023-02-18T07:47:04;13.30;99.90
5128;DHT22;2582;48.770;9.190;2023-02-18T07:49:31;13.30;99.90
5128;DHT22;2582;48.770;9.190;2023-02-18T07:51:57;13.30;99.90
5128;DHT22;2582;48.770;9.190;2023-02-18T07:54:23;13.30;99.90
5128;DHT22;2582;48.770;9.190;2023-02-18T07:56:49;13.40;99.90
5128;DHT22;2582;48.770;9.190;2023-02-18T07:59:15;13.60;99.90
5128;DHT22;2582;48.770;9.190;2023-02-18T08:01:41;13.80;99.90
5128;DHT22;2582;48.770;9.190;2023-02-18T08:04:07;13.90;99.90
5128;DHT22;2582;48.770;9.190;2023-02-18T08:06:41;13.80;99.90
5128;DHT22;2582;48.770;9.190;2023-02-18T08:09:07;13.80;99.90
5128;DHT22;2582;48.770;9.190;2023-02-18T08:11:33;13.90;99.90
5128;DHT22;2582;48.770;9.190;2023-02-18T08:13:58;13.90;99.90
5128;DHT22;2582;48.770;9.190;2023-02-18T08:16:24;13.80;99.90
5128;DHT22;2582;48.770;9.190;2023-02-18T08:18:51;13.80;99.90
5128;DHT22;2582;48.770;9.190;2023-02-18T08:21:18;13.80;99.90
5128;DHT22;2582;48.770;9.190;2023-02-18T08:23:44;14.00;99.90
5128;DHT22;2582;48.770;9.190;2023-02-18T08:26:10;13.90;99.90
5128;DHT22;2582;48.770;9.190;2023-02-18T08:28:36;14.10;99.90
5128;DHT22;2582;48.770;9.190;2023-02-18T08:31:01;14.10;99.90
5128;DHT22;2582;48.770;9.190;2023-02-18T08:33:27;14.20;99.90
5128;DHT22;2582;48.770;9.190;2023-02-18T08:35:54;14.40;99.90
5128;DHT22;2582;48.770;9.190;2023-02-18T08:38:21;14.40;99.90
5128;DHT22;2582;48.770;9.190;2023-02-18T08:40:47;14.40;99.90
5128;DHT22;2582;48.770;9.190;2023-02-18T08:43:13;14.40;99.90
5128;DHT22;2582;48.770;9.190;2023-02-18T08:45:39;14.40;99.90
5128;DHT22;2582;48.770;9.190;2023-02-18T08:48:06;14.10;99.90
5128;DHT22;2582;48.770;9.190;2023-02-18T08:50:33;14.20;99.90
5128;DHT22;2582;48.770;9.190;2023-02-18T08:52:59;14.30;99.90
5128;DHT22;2582;48.770;9.190;2023-02-18T08:55:31;14.30;99.90
5128;DHT22;2582;48.770;9.190;2023-02-18T08:57:57;14.30;99.90
5128;DHT22;2582;48.770;9.190;2023-02-18T09:00:23;14.20;99.90
5128;DHT22;2582;48.770;9.190;2023-02-18T09:02:48;14.50;99.90
5128;DHT22;2582;48.770;9.190;2023-02-18T09:05:14;14.40;99.90
5128;DHT22;2582;48.770;9.190;2023-02-18T09:07:39;14.40;99.90
5128;DHT22;2582;48.770;9.190;2023-02-18T09:10:06;14.40;99.90
5128;DHT22;2582;48.770;9.190;2023-02-18T09:12:32;14.50;99.90
5128;DHT22;2582;48.770;9.190;2023-02-18T09:14:58;14.60;99.90
5128;DHT22;2582;48.770;9.190;2023-02-18T09:17:25;14.50;99.90
5128;DHT22;2582;48.770;9.190;2023-02-18T09:19:50;14.60;99.90
5128;DHT22;2582;48.770;9.190;2023-02-18T09:22:16;14.60;99.90
5128;DHT22;2582;48.770;9.190;2023-02-18T09:24:42;14.70;99.90
5128;DHT22;2582;48.770;9.190;2023-02-18T09:27:08;14.90;99.90
5128;DHT22;2582;48.770;9.190;2023-02-18T09:29:36;15.00;99.90
5128;DHT22;2582;48.770;9.190;2023-02-18T09:32:02;15.10;99.90
5128;DHT22;2582;48.770;9.190;2023-02-18T09:34:28;15.20;99.90
5128;DHT22;2582;48.770;9.190;2023-02-18T09:36:54;15.10;99.90
5128;DHT22;2582;48.770;9.190;2023-02-18T09:39:20;15.20;99.90
5128;DHT22;2582;48.770;9.190;2023-02-18T09:44:18;14.80;99.90
5128;DHT22;2582;48.770;9.190;2023-02-18T09:49:24;14.90;99.90
5128;DHT22;2582;48.770;9.190;2023-02-18T09:51:52;14.80;99.90
5128;DHT22;2582;48.770;9.190;2023-02-18T09:54:19;15.00;99.90
5128;DHT22;2582;48.770;9.190;2023-02-18T09:56:45;14.90;99.90
5128;DHT22;2582;48.770;9.190;2023-02-18T09:59:17;14.90;99.90
5128;DHT22;2582;48.770;9.190;2023-02-18T10:01:46;14.80;99.90
5128;DHT22;2582;48.770;9.190;2023-02-18T10:04:17;14.90;99.90
5128;DHT22;2582;48.770;9.190;2023-02-18T10:06:48;14.90;99.90
5128;DHT22;2582;48.770;9.190;2023-02-18T10:11:48;14.90;99.90
5128;DHT22;2582;48.770;9.190;2023-02-18T10:14:15;15.00;99.90
5128;DHT22;2582;48.770;9.190;2023-02-18T10:16:44;15.00;99.90
5128;DHT22;2582;48.770;9.190;2023-02-18T10:19:44;15.10;99.90
5128;DHT22;2582;48.770;9.190;2023-02-18T10:22:11;14.90;99.90
5128;DHT22;2582;48.770;9.190;2023-02-18T10:24:51;15.00;99.90
5128;DHT22;2582;48.770;9.190;2023-02-18T10:29:51;15.00;99.90
5128;DHT22;2582;48.770;9.190;2023-02-18T10:32:35;15.00;99.90
5128;DHT22;2582;48.770;9.190;2023-02-18T10:35:14;15.00;99.90
5128;DHT22;2582;48.770;9.190;2023-02-18T10:38:27;14.90;99.90
5128;DHT22;2582;48.770;9.190;2023-02-18T10:41:01;15.00;99.90
5128;DHT22;2582;48.770;9.190;2023-02-18T10:46:36;15.20;99.90
5128;DHT22;2582;48.770;9.190;2023-02-18T10:51:49;15.40;99.90
5128;DHT22;2582;48.770;9.190;2023-02-18T10:54:15;15.60;99.90
5128;DHT22;2582;48.770;9.190;2023-02-18T10:56:49;15.60;99.90
5128;DHT22;2582;48.770;9.190;2023-02-18T10:59:30;15.50;99.90
5128;DHT22;2582;48.770;9.190;2023-02-18T11:01:59;15.60;99.90
5128;DHT22;2582;48.770;9.190;2023-02-18T11:04:34;15.50;99.90
5128;DHT22;2582;48.770;9.190;2023-02-18T11:07:13;15.80;99.90
5128;DHT22;2582;48.770;9.190;2023-02-18T11:12:25;15.90;99.90
5128;DHT22;2582;48.770;9.190;2023-02-18T11:17:31;16.00;99.90
5128;DHT22;2582;48.770;9.190;2023-02-18T11:19:59;15.90;99.90
5128;DHT22;2582;48.770;9.190;2023-02-18T11:22:30;15.90;99.90
5128;DHT22;2582;48.770;9.190;2023-02-18T11:24:59;16.00;99.90
5128;DHT22;2582;48.770;9.190;2023-02-18T11:27:43;16.00;99.90
5128;DHT22;2582;48.770;9.190;2023-02-18T11:30:24;15.70;99.90
5128;DHT22;2582;48.770;9.190;2023-02-18T11:32:55;15.60;99.90
5128;DHT22;2582;48.770;9.190;2023-02-18T11:35:26;15.80;99.90
5128;DHT22;2582;48.770;9.190;2023-02-18T11:37:53;15.90;99.90
5128;DHT22;2582;48.770;9.190;2023-02-18T11:40:35;15.90;99.90
5128;DHT22;2582;48.770;9.190;2023-02-18T11:43:06;15.70;99.90
5128;DHT22;2582;48.770;9.190;2023-02-18T11:45:35;15.50;99.90
5128;DHT22;2582;48.770;9.190;2023-02-18T11:48:22;15.60;99.90
5128;DHT22;2582;48.770;9.190;2023-02-18T11:50:52;15.70;99.90
5128;DHT22;2582;48.770;9.190;2023-02-18T11:53:25;15.70;99.90
5128;DHT22;2582;48.770;9.190;2023-02-18T11:55:57;15.90;99.90
5128;DHT22;2582;48.770;9.190;2023-02-18T11:58:23;15.90;99.90
5128;DHT22;2582;48.770;9.190;2023-02-18T12:00:50;16.00;99.90
5128;DHT22;2582;48.770;9.190;2023-02-18T12:03:55;15.70;99.90
5128;DHT22;2582;48.770;9.190;2023-02-18T12:06:27;15.70;99.90
5128;DHT22;2582;48.770;9.190;2023-02-18T12:09:26;15.80;99.90
5128;DHT22;2582;48.770;9.190;2023-02-18T12:11:57;15.70;99.90
5128;DHT22;2582;48.770;9.190;2023-02-18T12:14:24;15.80;99.90
5128;DHT22;2582;48.770;9.190;2023-02-18T12:22:46;16.00;99.90
5128;DHT22;2582;48.770;9.190;2023-02-18T12:28:03;16.40;99.90
5128;DHT22;2582;48.770;9.190;2023-02-18T12:33:27;16.80;99.90
5128;DHT22;2582;48.770;9.190;2023-02-18T12:44:52;16.40;99.90
5128;DHT22;2582;48.770;9.190;2023-02-18T12:47:30;16.30;99.90
5128;DHT22;2582;48.770;9.190;2023-02-18T12:56:04;16.40;99.90
5128;DHT22;2582;48.770;9.190;2023-02-18T13:01:24;16.60;99.90
5128;DHT22;2582;48.770;9.190;2023-02-18T13:15:30;16.30;99.90
5128;DHT22;2582;48.770;9.190;2023-02-18T13:18:01;16.10;99.90
5128;DHT22;2582;48.770;9.190;2023-02-18T13:20:43;16.10;99.90
5128;DHT22;2582;48.770;9.190;2023-02-18T13:23:18;16.00;99.90
5128;DHT22;2582;48.770;9.190;2023-02-18T13:25:46;15.80;99.90
5128;DHT22;2582;48.770;9.190;2023-02-18T13:28:28;15.80;99.90
5128;DHT22;2582;48.770;9.190;2023-02-18T13:31:18;15.80;99.90
5128;DHT22;2582;48.770;9.190;2023-02-18T13:39:17;15.80;99.90
5128;DHT22;2582;48.770;9.190;2023-02-18T13:41:46;15.90;99.90
5128;DHT22;2582;48.770;9.190;2023-02-18T13:47:01;16.20;99.90
5128;DHT22;2582;48.770;9.190;2023-02-18T13:49:34;16.40;99.90
5128;DHT22;2582;48.770;9.190;2023-02-18T13:52:03;17.00;99.90
5128;DHT22;2582;48.770;9.190;2023-02-18T13:54:33;18.00;99.90
5128;DHT22;2582;48.770;9.190;2023-02-18T13:57:05;18.50;99.30
5128;DHT22;2582;48.770;9.190;2023-02-18T13:59:38;19.20;97.90
5128;DHT22;2582;48.770;9.190;2023-02-18T14:04:54;19.30;97.00
5128;DHT22;2582;48.770;9.190;2023-02-18T14:07:43;19.00;96.90
5128;DHT22;2582;48.770;9.190;2023-02-18T14:18:08;16.50;99.90
5128;DHT22;2582;48.770;9.190;2023-02-18T14:26:34;16.10;99.90
5128;DHT22;2582;48.770;9.190;2023-02-18T14:42:42;16.10;99.90
5128;DHT22;2582;48.770;9.190;2023-02-18T14:50:49;15.70;99.90
5128;DHT22;2582;48.770;9.190;2023-02-18T14:53:21;15.70;99.90
5128;DHT22;2582;48.770;9.190;2023-02-18T14:55:53;15.70;99.90
5128;DHT22;2582;48.770;9.190;2023-02-18T14:58:35;15.70;99.90
5128;DHT22;2582;48.770;9.190;2023-02-18T15:01:22;15.80;99.90
5128;DHT22;2582;48.770;9.190;2023-02-18T15:03:50;15.80;99.90
5128;DHT22;2582;48.770;9.190;2023-02-18T15:08:59;16.00;99.90
5128;DHT22;2582;48.770;9.190;2023-02-18T15:11:34;16.00;99.90
5128;DHT22;2582;48.770;9.190;2023-02-18T15:14:03;15.80;99.90
5128;DHT22;2582;48.770;9.190;2023-02-18T15:16:33;15.80;99.90
5128;DHT22;2582;48.770;9.190;2023-02-18T15:19:01;15.80;99.90
5128;DHT22;2582;48.770;9.190;2023-02-18T15:21:34;16.00;99.90
5128;DHT22;2582;48.770;9.190;2023-02-18T15:24:06;16.10;99.90
5128;DHT22;2582;48.770;9.190;2023-02-18T15:26:36;16.00;99.90
5128;DHT22;2582;48.770;9.190;2023-02-18T15:29:14;15.80;99.90
5128;DHT22;2582;48.770;9.190;2023-02-18T15:31:42;15.70;99.90
5128;DHT22;2582;48.770;9.190;2023-02-18T15:34:30;15.70;99.90
5128;DHT22;2582;48.770;9.190;2023-02-18T15:36:59;15.50;99.90
5128;DHT22;2582;48.770;9.190;2023-02-18T15:39:25;15.50;99.90
5128;DHT22;2582;48.770;9.190;2023-02-18T15:41:55;15.50;99.90
5128;DHT22;2582;48.770;9.190;2023-02-18T15:44:24;15.50;99.90
5128;DHT22;2582;48.770;9.190;2023-02-18T15:46:51;15.40;99.90
5128;DHT22;2582;48.770;9.190;2023-02-18T15:49:20;15.40;99.90
5128;DHT22;2582;48.770;9.190;2023-02-18T15:51:47;15.30;99.90
5128;DHT22;2582;48.770;9.190;2023-02-18T15:54:16;15.40;99.90
5128;DHT22;2582;48.770;9.190;2023-02-18T15:56:45;15.30;99.90
5128;DHT22;2582;48.770;9.190;2023-02-18T15:59:31;15.20;99.90
5128;DHT22;2582;48.770;9.190;2023-02-18T16:04:46;15.00;99.90
5128;DHT22;2582;48.770;9.190;2023-02-18T16:07:30;15.10;99.90
5128;DHT22;2582;48.770;9.190;2023-02-18T16:10:22;15.10;99.90
5128;DHT22;2582;48.770;9.190;2023-02-18T16:12:55;15.10;99.90
5128;DHT22;2582;48.770;9.190;2023-02-18T16:15:36;15.00;99.90
5128;DHT22;2582;48.770;9.190;2023-02-18T16:18:03;14.90;99.90
5128;DHT22;2582;48.770;9.190;2023-02-18T16:20:36;14.90;99.90
5128;DHT22;2582;48.770;9.190;2023-02-18T16:23:13;14.90;99.90
5128;DHT22;2582;48.770;9.190;2023-02-18T16:28:11;14.80;99.90
5128;DHT22;2582;48.770;9.190;2023-02-18T16:30:36;14.80;99.90
5128;DHT22;2582;48.770;9.190;2023-02-18T16:33:06;14.80;99.90
5128;DHT22;2582;48.770;9.190;2023-02-18T16:35:31;14.70;99.90
5128;DHT22;2582;48.770;9.190;2023-02-18T16:37:57;14.80;99.90
5128;DHT22;2582;48.770;9.190;2023-02-18T16:40:30;14.60;99.90
5128;DHT22;2582;48.770;9.190;2023-02-18T16:42:59;14.60;99.90
5128;DHT22;2582;48.770;9.190;2023-02-18T16:45:46;14.50;99.90
5128;DHT22;2582;48.770;9.190;2023-02-18T16:48:31;14.40;99.90
5128;DHT22;2582;48.770;9.190;2023-02-18T16:50:59;14.40;99.90
5128;DHT22;2582;48.770;9.190;2023-02-18T16:53:25;14.50;99.90
5128;DHT22;2582;48.770;9.190;2023-02-18T16:55:51;14.60;99.90
5128;DHT22;2582;48.770;9.190;2023-02-18T16:58:16;14.60;99.90
5128;DHT22;2582;48.770;9.190;2023-02-18T17:00:43;14.60;99.90
5128;DHT22;2582;48.770;9.190;2023-02-18T17:03:09;14.40;99.90
5128;DHT22;2582;48.770;9.190;2023-02-18T17:05:35;14.60;99.90
5128;DHT22;2582;48.770;9.190;2023-02-18T17:08:24;14.60;99.90
5128;DHT22;2582;48.770;9.190;2023-02-18T17:10:57;14.40;99.90
5128;DHT22;2582;48.770;9.190;2023-02-18T17:13:27;14.40;99.90
5128;DHT22;2582;48.770;9.190;2023-02-18T17:15:55;14.50;99.90
5128;DHT22;2582;48.770;9.190;2023-02-18T17:18:23;14.60;99.90
5128;DHT22;2582;48.770;9.190;2023-02-18T17:20:50;14.50;99.90
5128;DHT22;2582;48.770;9.190;2023-02-18T17:23:21;14.60;99.90
5128;DHT22;2582;48.770;9.190;2023-02-18T17:25:48;14.60;99.90
5128;DHT22;2582;48.770;9.190;2023-02-18T17:28:14;14.50;99.90
5128;DHT22;2582;48.770;9.190;2023-02-18T17:30:45;14.40;99.90
5128;DHT22;2582;48.770;9.190;2023-02-18T17:33:14;14.50;99.90
5128;DHT22;2582;48.770;9.190;2023-02-18T17:35:41;14.50;99.90
5128;DHT22;2582;48.770;9.190;2023-02-18T17:38:14;14.50;99.90
5128;DHT22;2582;48.770;9.190;2023-02-18T17:40:40;14.60;99.90
5128;DHT22;2582;48.770;9.190;2023-02-18T17:43:11;14.50;99.90
5128;DHT22;2582;48.770;9.190;2023-02-18T17:45:44;14.50;99.90
5128;DHT22;2582;48.770;9.190;2023-02-18T17:48:12;14.40;99.90
5128;DHT22;2582;48.770;9.190;2023-02-18T17:50:38;14.40;99.90
5128;DHT22;2582;48.770;9.190;2023-02-18T17:53:04;14.40;99.90
5128;DHT22;2582;48.770;9.190;2023-02-18T17:55:32;14.40;99.90
5128;DHT22;2582;48.770;9.190;2023-02-18T17:57:58;14.40;99.90
5128;DHT22;2582;48.770;9.190;2023-02-18T18:00:29;14.40;99.90
5128;DHT22;2582;48.770;9.190;2023-02-18T18:02:55;14.30;99.90
5128;DHT22;2582;48.770;9.190;2023-02-18T18:05:29;14.20;99.90
5128;DHT22;2582;48.770;9.190;2023-02-18T18:07:56;14.30;99.90
5128;DHT22;2582;48.770;9.190;2023-02-18T18:10:24;14.30;99.90
5128;DHT22;2582;48.770;9.190;2023-02-18T18:12:55;14.20;99.90
5128;DHT22;2582;48.770;9.190;2023-02-18T18:15:25;14.30;99.90
5128;DHT22;2582;48.770;9.190;2023-02-18T18:17:51;14.40;99.90
5128;DHT22;2582;48.770;9.190;2023-02-18T18:20:18;14.20;99.90
5128;DHT22;2582;48.770;9.190;2023-02-18T18:22:44;14.20;99.90
5128;DHT22;2582;48.770;9.190;2023-02-18T18:25:16;14.20;99.90
5128;DHT22;2582;48.770;9.190;2023-02-18T18:27:42;14.30;99.90
5128;DHT22;2582;48.770;9.190;2023-02-18T18:30:08;14.20;99.90
5128;DHT22;2582;48.770;9.190;2023-02-18T18:32:34;14.30;99.90
5128;DHT22;2582;48.770;9.190;2023-02-18T18:34:59;14.20;99.90
5128;DHT22;2582;48.770;9.190;2023-02-18T18:37:25;14.10;99.90
5128;DHT22;2582;48.770;9.190;2023-02-18T18:39:50;14.10;99.90
5128;DHT22;2582;48.770;9.190;2023-02-18T18:42:16;14.10;99.90
5128;DHT22;2582;48.770;9.190;2023-02-18T18:44:41;14.20;99.90